sensor_id;sensor_type;location;lat;lon;timestamp;temperature;humidity
65752;DHT22;52486;51.098;13.770;2022-12-18T00:01:22;21.00;55.10
65752;DHT22;52486;51.098;13.770;2022-12-18T00:03:48;20.90;56.90
65752;DHT22;52486;51.098;13.770;2022-12-18T00:06:14;20.90;56.50
65752;DHT22;52486;51.098;13.770;2022-12-18T00:08:40;21.00;56.50
65752;DHT22;52486;51.098;13.770;2022-12-18T00:11:06;20.90;56.70
65752;DHT22;52486;51.098;13.770;2022-12-18T00:13:32;20.90;56.80
65752;DHT22;52486;51.098;13.770;2022-12-18T00:16:04;21.00;56.90
65752;DHT22;52486;51.098;13.770;2022-12-18T00:18:30;20.90;55.10
65752;DHT22;52486;51.098;13.770;2022-12-18T00:20:59;20.90;56.80
65752;DHT22;52486;51.098;13.770;2022-12-18T00:23:26;21.00;55.20
65752;DHT22;52486;51.098;13.770;2022-12-18T00:25:51;20.90;56.60
65752;DHT22;52486;51.098;13.770;2022-12-18T00:28:17;21.00;56.90
65752;DHT22;52486;51.098;13.770;2022-12-18T00:30:42;20.90;57.00
65752;DHT22;52486;51.098;13.770;2022-12-18T00:33:08;20.90;57.00
65752;DHT22;52486;51.098;13.770;2022-12-18T00:35:33;20.90;57.00
65752;DHT22;52486;51.098;13.770;2022-12-18T00:37:59;20.80;57.00
65752;DHT22;52486;51.098;13.770;2022-12-18T00:40:24;20.90;57.30
65752;DHT22;52486;51.098;13.770;2022-12-18T00:42:50;20.90;57.20
65752;DHT22;52486;51.098;13.770;2022-12-18T00:45:29;20.80;55.70
65752;DHT22;52486;51.098;13.770;2022-12-18T00:47:55;20.90;55.30
65752;DHT22;52486;51.098;13.770;2022-12-18T00:50:21;20.90;57.10
65752;DHT22;52486;51.098;13.770;2022-12-18T00:52:46;21.00;56.90
65752;DHT22;52486;51.098;13.770;2022-12-18T00:55:12;21.00;57.10
65752;DHT22;52486;51.098;13.770;2022-12-18T00:57:38;20.90;57.10
65752;DHT22;52486;51.098;13.770;2022-12-18T01:00:04;20.90;57.00
65752;DHT22;52486;51.098;13.770;2022-12-18T01:02:30;20.90;56.60
65752;DHT22;52486;51.098;13.770;2022-12-18T01:04:55;20.80;57.10
65752;DHT22;52486;51.098;13.770;2022-12-18T01:07:21;21.00;57.20
65752;DHT22;52486;51.098;13.770;2022-12-18T01:09:47;20.80;56.90
65752;DHT22;52486;51.098;13.770;2022-12-18T01:12:12;21.00;57.00
65752;DHT22;52486;51.098;13.770;2022-12-18T01:14:38;20.80;57.10
65752;DHT22;52486;51.098;13.770;2022-12-18T01:17:03;21.00;57.20
65752;DHT22;52486;51.098;13.770;2022-12-18T01:19:29;20.90;57.10
65752;DHT22;52486;51.098;13.770;2022-12-18T01:21:55;21.00;56.90
65752;DHT22;52486;51.098;13.770;2022-12-18T01:24:20;20.90;56.80
65752;DHT22;52486;51.098;13.770;2022-12-18T01:26:46;21.00;57.00
65752;DHT22;52486;51.098;13.770;2022-12-18T01:29:11;20.80;57.20
65752;DHT22;52486;51.098;13.770;2022-12-18T01:31:37;20.80;57.30
65752;DHT22;52486;51.098;13.770;2022-12-18T01:34:03;20.90;57.20
65752;DHT22;52486;51.098;13.770;2022-12-18T01:36:30;20.90;57.10
65752;DHT22;52486;51.098;13.770;2022-12-18T01:38:56;21.10;57.30
65752;DHT22;52486;51.098;13.770;2022-12-18T01:41:23;20.80;56.90
65752;DHT22;52486;51.098;13.770;2022-12-18T01:46:15;20.90;57.00
65752;DHT22;52486;51.098;13.770;2022-12-18T01:48:41;20.80;56.90
65752;DHT22;52486;51.098;13.770;2022-12-18T01:51:08;20.90;57.20
65752;DHT22;52486;51.098;13.770;2022-12-18T01:53:34;21.00;57.00
65752;DHT22;52486;51.098;13.770;2022-12-18T01:56:04;20.90;57.30
65752;DHT22;52486;51.098;13.770;2022-12-18T02:00:55;20.90;57.10
65752;DHT22;52486;51.098;13.770;2022-12-18T02:03:21;21.00;57.20
65752;DHT22;52486;51.098;13.770;2022-12-18T02:08:50;20.80;55.40
65752;DHT22;52486;51.098;13.770;2022-12-18T02:13:58;20.90;57.10
65752;DHT22;52486;51.098;13.770;2022-12-18T02:16:51;21.00;55.50
65752;DHT22;52486;51.098;13.770;2022-12-18T02:19:27;21.00;57.20
65752;DHT22;52486;51.098;13.770;2022-12-18T02:22:04;20.90;57.10
65752;DHT22;52486;51.098;13.770;2022-12-18T02:24:37;20.90;57.20
65752;DHT22;52486;51.098;13.770;2022-12-18T02:27:07;20.80;55.60
65752;DHT22;52486;51.098;13.770;2022-12-18T02:29:55;20.80;57.20
65752;DHT22;52486;51.098;13.770;2022-12-18T02:32:22;20.70;57.20
65752;DHT22;52486;51.098;13.770;2022-12-18T02:34:49;21.00;57.40
65752;DHT22;52486;51.098;13.770;2022-12-18T02:37:16;20.90;57.30
65752;DHT22;52486;51.098;13.770;2022-12-18T02:39:42;20.80;57.40
65752;DHT22;52486;51.098;13.770;2022-12-18T02:42:09;20.90;57.30
65752;DHT22;52486;51.098;13.770;2022-12-18T02:44:41;20.80;57.30
65752;DHT22;52486;51.098;13.770;2022-12-18T02:47:08;20.90;57.10
65752;DHT22;52486;51.098;13.770;2022-12-18T02:49:40;20.90;57.50
65752;DHT22;52486;51.098;13.770;2022-12-18T02:54:57;20.90;55.70
65752;DHT22;52486;51.098;13.770;2022-12-18T03:00:08;20.80;55.70
65752;DHT22;52486;51.098;13.770;2022-12-18T03:02:43;20.90;57.30
65752;DHT22;52486;51.098;13.770;2022-12-18T03:05:19;20.90;55.70
65752;DHT22;52486;51.098;13.770;2022-12-18T03:08:07;20.80;55.60
65752;DHT22;52486;51.098;13.770;2022-12-18T03:10:32;20.90;57.10
65752;DHT22;52486;51.098;13.770;2022-12-18T03:13:20;20.90;57.30
65752;DHT22;52486;51.098;13.770;2022-12-18T03:15:45;20.90;57.40
65752;DHT22;52486;51.098;13.770;2022-12-18T03:18:22;20.80;57.20
65752;DHT22;52486;51.098;13.770;2022-12-18T03:20:51;20.80;57.40
65752;DHT22;52486;51.098;13.770;2022-12-18T03:23:19;20.70;55.50
65752;DHT22;52486;51.098;13.770;2022-12-18T03:25:45;20.80;57.30
65752;DHT22;52486;51.098;13.770;2022-12-18T03:28:12;20.90;57.10
65752;DHT22;52486;51.098;13.770;2022-12-18T03:30:39;20.90;57.50
65752;DHT22;52486;51.098;13.770;2022-12-18T03:33:10;21.00;57.40
65752;DHT22;52486;51.098;13.770;2022-12-18T03:35:38;21.00;55.70
65752;DHT22;52486;51.098;13.770;2022-12-18T03:38:05;21.10;57.30
65752;DHT22;52486;51.098;13.770;2022-12-18T03:43:16;21.00;55.80
65752;DHT22;52486;51.098;13.770;2022-12-18T03:45:44;20.90;55.70
65752;DHT22;52486;51.098;13.770;2022-12-18T03:48:16;20.90;57.50
65752;DHT22;52486;51.098;13.770;2022-12-18T03:53:22;20.90;55.80
65752;DHT22;52486;51.098;13.770;2022-12-18T03:55:50;21.00;55.80
65752;DHT22;52486;51.098;13.770;2022-12-18T03:58:17;20.80;57.40
65752;DHT22;52486;51.098;13.770;2022-12-18T04:00:43;20.90;57.50
65752;DHT22;52486;51.098;13.770;2022-12-18T04:03:09;20.80;57.40
65752;DHT22;52486;51.098;13.770;2022-12-18T04:05:35;20.80;57.20
65752;DHT22;52486;51.098;13.770;2022-12-18T04:08:02;20.80;57.20
65752;DHT22;52486;51.098;13.770;2022-12-18T04:10:28;20.80;57.40
65752;DHT22;52486;51.098;13.770;2022-12-18T04:12:56;20.90;57.30
65752;DHT22;52486;51.098;13.770;2022-12-18T04:15:22;20.80;57.30
65752;DHT22;52486;51.098;13.770;2022-12-18T04:17:48;20.90;57.40
65752;DHT22;52486;51.098;13.770;2022-12-18T04:20:14;20.90;57.30
65752;DHT22;52486;51.098;13.770;2022-12-18T04:22:40;20.90;57.40
65752;DHT22;52486;51.098;13.770;2022-12-18T04:25:06;20.90;57.30
65752;DHT22;52486;51.098;13.770;2022-12-18T04:27:31;20.80;56.90
65752;DHT22;52486;51.098;13.770;2022-12-18T04:29:57;20.80;57.30
65752;DHT22;52486;51.098;13.770;2022-12-18T04:32:22;20.80;57.40
65752;DHT22;52486;51.098;13.770;2022-12-18T04:34:48;20.90;57.20
65752;DHT22;52486;51.098;13.770;2022-12-18T04:37:14;20.90;57.60
65752;DHT22;52486;51.098;13.770;2022-12-18T04:39:39;20.80;57.10
65752;DHT22;52486;51.098;13.770;2022-12-18T04:42:05;21.00;57.40
65752;DHT22;52486;51.098;13.770;2022-12-18T04:44:30;20.70;57.40
65752;DHT22;52486;51.098;13.770;2022-12-18T04:46:56;21.00;57.30
65752;DHT22;52486;51.098;13.770;2022-12-18T04:49:21;20.80;57.20
65752;DHT22;52486;51.098;13.770;2022-12-18T04:51:47;20.80;57.40
65752;DHT22;52486;51.098;13.770;2022-12-18T04:54:13;20.80;56.70
65752;DHT22;52486;51.098;13.770;2022-12-18T04:56:38;20.90;57.50
65752;DHT22;52486;51.098;13.770;2022-12-18T04:59:05;20.90;57.30
65752;DHT22;52486;51.098;13.770;2022-12-18T05:01:33;21.00;57.40
65752;DHT22;52486;51.098;13.770;2022-12-18T05:03:59;20.80;55.60
65752;DHT22;52486;51.098;13.770;2022-12-18T05:06:25;20.80;57.60
65752;DHT22;52486;51.098;13.770;2022-12-18T05:08:50;20.80;57.20
65752;DHT22;52486;51.098;13.770;2022-12-18T05:11:16;20.90;57.60
65752;DHT22;52486;51.098;13.770;2022-12-18T05:13:42;20.80;57.40
65752;DHT22;52486;51.098;13.770;2022-12-18T05:16:08;20.80;57.00
65752;DHT22;52486;51.098;13.770;2022-12-18T05:18:34;20.90;57.40
65752;DHT22;52486;51.098;13.770;2022-12-18T05:21:00;20.90;57.40
65752;DHT22;52486;51.098;13.770;2022-12-18T05:23:25;20.70;57.50
65752;DHT22;52486;51.098;13.770;2022-12-18T05:25:52;20.80;57.40
65752;DHT22;52486;51.098;13.770;2022-12-18T05:28:18;20.90;57.10
65752;DHT22;52486;51.098;13.770;2022-12-18T05:30:47;20.80;57.10
65752;DHT22;52486;51.098;13.770;2022-12-18T05:33:12;20.80;57.40
65752;DHT22;52486;51.098;13.770;2022-12-18T05:35:38;20.80;57.20
65752;DHT22;52486;51.098;13.770;2022-12-18T05:38:03;20.70;57.20
65752;DHT22;52486;51.098;13.770;2022-12-18T05:40:29;20.80;57.30
65752;DHT22;52486;51.098;13.770;2022-12-18T05:42:54;20.70;57.30
65752;DHT22;52486;51.098;13.770;2022-12-18T05:45:20;20.80;57.30
65752;DHT22;52486;51.098;13.770;2022-12-18T05:47:46;20.80;57.20
65752;DHT22;52486;51.098;13.770;2022-12-18T05:50:11;20.80;57.30
65752;DHT22;52486;51.098;13.770;2022-12-18T05:52:37;20.70;57.30
65752;DHT22;52486;51.098;13.770;2022-12-18T05:55:02;21.00;57.50
65752;DHT22;52486;51.098;13.770;2022-12-18T05:57:28;20.90;56.80
65752;DHT22;52486;51.098;13.770;2022-12-18T05:59:53;20.90;57.00
65752;DHT22;52486;51.098;13.770;2022-12-18T06:02:19;20.90;57.00
65752;DHT22;52486;51.098;13.770;2022-12-18T06:04:46;20.90;57.20
65752;DHT22;52486;51.098;13.770;2022-12-18T06:07:12;20.90;57.00
65752;DHT22;52486;51.098;13.770;2022-12-18T06:09:38;20.70;57.00
65752;DHT22;52486;51.098;13.770;2022-12-18T06:12:03;20.90;57.20
65752;DHT22;52486;51.098;13.770;2022-12-18T06:14:29;20.80;56.80
65752;DHT22;52486;51.098;13.770;2022-12-18T06:16:54;20.80;57.10
65752;DHT22;52486;51.098;13.770;2022-12-18T06:19:20;20.70;57.10
65752;DHT22;52486;51.098;13.770;2022-12-18T06:21:46;20.70;57.10
65752;DHT22;52486;51.098;13.770;2022-12-18T06:24:11;20.90;56.90
65752;DHT22;52486;51.098;13.770;2022-12-18T06:26:37;20.80;57.20
65752;DHT22;52486;51.098;13.770;2022-12-18T06:29:03;20.70;57.00
65752;DHT22;52486;51.098;13.770;2022-12-18T06:31:29;20.80;57.20
65752;DHT22;52486;51.098;13.770;2022-12-18T06:33:55;20.80;57.20
65752;DHT22;52486;51.098;13.770;2022-12-18T06:36:20;20.80;57.10
65752;DHT22;52486;51.098;13.770;2022-12-18T06:38:46;20.60;56.80
65752;DHT22;52486;51.098;13.770;2022-12-18T06:41:13;20.90;57.50
65752;DHT22;52486;51.098;13.770;2022-12-18T06:43:38;20.70;57.30
65752;DHT22;52486;51.098;13.770;2022-12-18T06:46:04;20.80;57.20
65752;DHT22;52486;51.098;13.770;2022-12-18T06:48:30;20.70;57.10
65752;DHT22;52486;51.098;13.770;2022-12-18T06:50:56;20.80;57.20
65752;DHT22;52486;51.098;13.770;2022-12-18T06:53:22;20.80;56.90
65752;DHT22;52486;51.098;13.770;2022-12-18T06:55:48;20.90;57.10
65752;DHT22;52486;51.098;13.770;2022-12-18T06:58:14;20.70;57.20
65752;DHT22;52486;51.098;13.770;2022-12-18T07:00:39;20.90;57.20
65752;DHT22;52486;51.098;13.770;2022-12-18T07:03:05;20.70;57.40
65752;DHT22;52486;51.098;13.770;2022-12-18T07:05:30;20.80;57.10
65752;DHT22;52486;51.098;13.770;2022-12-18T07:07:56;20.80;57.30
65752;DHT22;52486;51.098;13.770;2022-12-18T07:10:21;20.70;57.20
65752;DHT22;52486;51.098;13.770;2022-12-18T07:12:47;20.90;57.40
65752;DHT22;52486;51.098;13.770;2022-12-18T07:15:13;20.70;57.10
65752;DHT22;52486;51.098;13.770;2022-12-18T07:17:38;20.80;57.30
65752;DHT22;52486;51.098;13.770;2022-12-18T07:20:04;20.90;57.30
65752;DHT22;52486;51.098;13.770;2022-12-18T07:22:29;20.70;56.60
65752;DHT22;52486;51.098;13.770;2022-12-18T07:24:55;20.80;57.30
65752;DHT22;52486;51.098;13.770;2022-12-18T07:27:21;20.80;57.30
65752;DHT22;52486;51.098;13.770;2022-12-18T07:29:47;20.70;57.10
65752;DHT22;52486;51.098;13.770;2022-12-18T07:32:12;20.60;58.00
65752;DHT22;52486;51.098;13.770;2022-12-18T07:34:38;20.70;57.30
65752;DHT22;52486;51.098;13.770;2022-12-18T07:37:04;20.70;57.30
65752;DHT22;52486;51.098;13.770;2022-12-18T07:39:30;20.90;55.60
65752;DHT22;52486;51.098;13.770;2022-12-18T07:41:55;20.80;57.30
65752;DHT22;52486;51.098;13.770;2022-12-18T07:44:40;20.80;56.10
65752;DHT22;52486;51.098;13.770;2022-12-18T07:47:05;20.80;57.40
65752;DHT22;52486;51.098;13.770;2022-12-18T07:49:31;20.90;57.30
65752;DHT22;52486;51.098;13.770;2022-12-18T07:51:56;20.80;57.10
65752;DHT22;52486;51.098;13.770;2022-12-18T07:54:23;20.90;57.20
65752;DHT22;52486;51.098;13.770;2022-12-18T07:56:48;20.80;57.20
65752;DHT22;52486;51.098;13.770;2022-12-18T07:59:14;20.90;57.70
65752;DHT22;52486;51.098;13.770;2022-12-18T08:01:39;20.90;58.70
65752;DHT22;52486;51.098;13.770;2022-12-18T08:04:05;21.00;58.40
65752;DHT22;52486;51.098;13.770;2022-12-18T08:06:30;20.90;58.00
65752;DHT22;52486;51.098;13.770;2022-12-18T08:08:56;21.00;58.00
65752;DHT22;52486;51.098;13.770;2022-12-18T08:11:22;21.00;58.30
65752;DHT22;52486;51.098;13.770;2022-12-18T08:13:48;21.10;58.20
65752;DHT22;52486;51.098;13.770;2022-12-18T08:16:14;21.10;58.10
65752;DHT22;52486;51.098;13.770;2022-12-18T08:18:39;21.20;58.10
65752;DHT22;52486;51.098;13.770;2022-12-18T08:21:08;21.10;57.90
65752;DHT22;52486;51.098;13.770;2022-12-18T08:23:47;21.10;55.50
65752;DHT22;52486;51.098;13.770;2022-12-18T08:26:13;21.10;54.90
65752;DHT22;52486;51.098;13.770;2022-12-18T08:28:39;21.30;56.10
65752;DHT22;52486;51.098;13.770;2022-12-18T08:31:05;21.40;56.30
65752;DHT22;52486;51.098;13.770;2022-12-18T08:33:32;21.20;56.30
65752;DHT22;52486;51.098;13.770;2022-12-18T08:35:58;21.30;62.60
65752;DHT22;52486;51.098;13.770;2022-12-18T08:38:24;21.30;61.50
65752;DHT22;52486;51.098;13.770;2022-12-18T08:48:25;22.30;66.90
65752;DHT22;52486;51.098;13.770;2022-12-18T08:50:54;22.40;56.30
65752;DHT22;52486;51.098;13.770;2022-12-18T08:53:20;22.60;54.20
65752;DHT22;52486;51.098;13.770;2022-12-18T08:55:46;22.80;53.90
65752;DHT22;52486;51.098;13.770;2022-12-18T08:58:11;22.70;54.10
65752;DHT22;52486;51.098;13.770;2022-12-18T09:00:37;23.00;65.60
65752;DHT22;52486;51.098;13.770;2022-12-18T09:03:02;23.00;52.60
65752;DHT22;52486;51.098;13.770;2022-12-18T09:05:28;23.10;64.30
65752;DHT22;52486;51.098;13.770;2022-12-18T09:07:53;23.30;67.60
65752;DHT22;52486;51.098;13.770;2022-12-18T10:11:34;24.70;44.80
65752;DHT22;52486;51.098;13.770;2022-12-18T10:14:07;24.70;43.30
65752;DHT22;52486;51.098;13.770;2022-12-18T10:31:18;24.70;43.40
65752;DHT22;52486;51.098;13.770;2022-12-18T10:33:44;24.80;44.20
65752;DHT22;52486;51.098;13.770;2022-12-18T10:36:09;24.80;43.80
65752;DHT22;52486;51.098;13.770;2022-12-18T10:38:35;25.00;44.10
65752;DHT22;52486;51.098;13.770;2022-12-18T10:41:05;24.70;44.20
65752;DHT22;52486;51.098;13.770;2022-12-18T10:43:31;24.90;42.40
65752;DHT22;52486;51.098;13.770;2022-12-18T10:48:23;24.90;56.40
65752;DHT22;52486;51.098;13.770;2022-12-18T10:50:49;25.00;58.20
65752;DHT22;52486;51.098;13.770;2022-12-18T10:53:23;25.00;58.00
65752;DHT22;52486;51.098;13.770;2022-12-18T10:55:49;24.90;56.40
65752;DHT22;52486;51.098;13.770;2022-12-18T10:58:20;25.10;58.20
65752;DHT22;52486;51.098;13.770;2022-12-18T11:01:01;25.00;58.10
65752;DHT22;52486;51.098;13.770;2022-12-18T11:03:31;25.10;58.30
65752;DHT22;52486;51.098;13.770;2022-12-18T11:06:04;25.40;57.90
65752;DHT22;52486;51.098;13.770;2022-12-18T11:08:30;25.40;57.80
65752;DHT22;52486;51.098;13.770;2022-12-18T11:10:56;25.50;59.10
65752;DHT22;52486;51.098;13.770;2022-12-18T11:13:22;25.60;59.80
65752;DHT22;52486;51.098;13.770;2022-12-18T11:15:49;25.50;60.30
65752;DHT22;52486;51.098;13.770;2022-12-18T11:18:28;25.40;60.40
65752;DHT22;52486;51.098;13.770;2022-12-18T11:28:27;25.80;43.30
65752;DHT22;52486;51.098;13.770;2022-12-18T11:31:09;26.00;42.50
65752;DHT22;52486;51.098;13.770;2022-12-18T11:33:40;26.10;44.20
65752;DHT22;52486;51.098;13.770;2022-12-18T11:38:33;26.60;71.10
65752;DHT22;52486;51.098;13.770;2022-12-18T11:43:58;26.80;39.20
65752;DHT22;52486;51.098;13.770;2022-12-18T11:49:01;26.90;63.80
65752;DHT22;52486;51.098;13.770;2022-12-18T11:58:56;26.60;48.00
65752;DHT22;52486;51.098;13.770;2022-12-18T12:04:43;26.70;42.30
65752;DHT22;52486;51.098;13.770;2022-12-18T12:20:15;26.40;45.80
65752;DHT22;52486;51.098;13.770;2022-12-18T12:25:18;26.70;46.60
65752;DHT22;52486;51.098;13.770;2022-12-18T13:17:28;27.10;68.50
65752;DHT22;52486;51.098;13.770;2022-12-18T13:20:05;27.10;56.60
65752;DHT22;52486;51.098;13.770;2022-12-18T13:22:34;27.30;55.70
65752;DHT22;52486;51.098;13.770;2022-12-18T13:31:11;27.10;39.90
65752;DHT22;52486;51.098;13.770;2022-12-18T13:38:22;26.70;40.40
65752;DHT22;52486;51.098;13.770;2022-12-18T13:45:46;26.50;48.40
65752;DHT22;52486;51.098;13.770;2022-12-18T13:48:17;26.40;50.50
65752;DHT22;52486;51.098;13.770;2022-12-18T13:50:47;26.60;49.20
65752;DHT22;52486;51.098;13.770;2022-12-18T13:53:19;26.80;42.50
65752;DHT22;52486;51.098;13.770;2022-12-18T13:55:46;26.60;40.80
65752;DHT22;52486;51.098;13.770;2022-12-18T13:58:12;26.80;43.00
65752;DHT22;52486;51.098;13.770;2022-12-18T14:00:41;26.60;45.40
65752;DHT22;52486;51.098;13.770;2022-12-18T14:03:23;26.50;47.10
65752;DHT22;52486;51.098;13.770;2022-12-18T14:05:53;26.60;45.20
65752;DHT22;52486;51.098;13.770;2022-12-18T14:08:19;26.30;43.70
65752;DHT22;52486;51.098;13.770;2022-12-18T14:10:46;26.40;46.40
65752;DHT22;52486;51.098;13.770;2022-12-18T14:13:15;26.40;48.20
65752;DHT22;52486;51.098;13.770;2022-12-18T14:15:43;26.30;47.70
65752;DHT22;52486;51.098;13.770;2022-12-18T14:20:35;26.40;52.30
65752;DHT22;52486;51.098;13.770;2022-12-18T14:23:00;26.30;53.30
65752;DHT22;52486;51.098;13.770;2022-12-18T14:30:29;25.90;71.60
65752;DHT22;52486;51.098;13.770;2022-12-18T14:38:59;25.70;45.70
65752;DHT22;52486;51.098;13.770;2022-12-18T14:43:32;25.30;44.10
65752;DHT22;52486;51.098;13.770;2022-12-18T14:45:58;25.30;46.50
65752;DHT22;52486;51.098;13.770;2022-12-18T14:48:37;25.30;46.10
65752;DHT22;52486;51.098;13.770;2022-12-18T14:53:48;25.10;44.80
65752;DHT22;52486;51.098;13.770;2022-12-18T14:58:43;25.10;47.20
65752;DHT22;52486;51.098;13.770;2022-12-18T15:01:09;25.10;46.80
65752;DHT22;52486;51.098;13.770;2022-12-18T15:03:43;25.00;47.70
65752;DHT22;52486;51.098;13.770;2022-12-18T15:06:16;25.00;47.90
65752;DHT22;52486;51.098;13.770;2022-12-18T15:08:41;24.80;45.90
65752;DHT22;52486;51.098;13.770;2022-12-18T15:13:52;24.80;47.00
65752;DHT22;52486;51.098;13.770;2022-12-18T15:16:18;24.70;49.80
65752;DHT22;52486;51.098;13.770;2022-12-18T15:18:43;24.90;52.10
65752;DHT22;52486;51.098;13.770;2022-12-18T15:21:11;24.70;53.90
65752;DHT22;52486;51.098;13.770;2022-12-18T15:26:10;24.60;60.00
65752;DHT22;52486;51.098;13.770;2022-12-18T15:43:21;24.40;71.00
65752;DHT22;52486;51.098;13.770;2022-12-18T15:46:10;24.50;61.90
65752;DHT22;52486;51.098;13.770;2022-12-18T15:48:40;24.30;59.20
65752;DHT22;52486;51.098;13.770;2022-12-18T15:51:11;24.40;51.50
65752;DHT22;52486;51.098;13.770;2022-12-18T15:53:39;24.40;54.00
65752;DHT22;52486;51.098;13.770;2022-12-18T15:56:05;24.30;57.80
65752;DHT22;52486;51.098;13.770;2022-12-18T15:58:52;24.20;55.40
65752;DHT22;52486;51.098;13.770;2022-12-18T16:01:18;24.30;56.70
65752;DHT22;52486;51.098;13.770;2022-12-18T16:03:43;24.10;58.70
65752;DHT22;52486;51.098;13.770;2022-12-18T16:06:09;24.30;57.10
65752;DHT22;52486;51.098;13.770;2022-12-18T16:08:35;24.40;57.50
65752;DHT22;52486;51.098;13.770;2022-12-18T16:11:01;24.30;57.50
65752;DHT22;52486;51.098;13.770;2022-12-18T16:13:26;24.30;54.70
65752;DHT22;52486;51.098;13.770;2022-12-18T16:15:52;24.10;53.70
65752;DHT22;52486;51.098;13.770;2022-12-18T16:18:18;24.10;54.10
65752;DHT22;52486;51.098;13.770;2022-12-18T16:20:43;24.00;54.90
65752;DHT22;52486;51.098;13.770;2022-12-18T16:23:09;24.10;55.70
65752;DHT22;52486;51.098;13.770;2022-12-18T16:25:34;24.00;54.00
65752;DHT22;52486;51.098;13.770;2022-12-18T16:28:00;23.90;53.20
65752;DHT22;52486;51.098;13.770;2022-12-18T16:30:26;23.90;53.50
65752;DHT22;52486;51.098;13.770;2022-12-18T16:32:53;24.00;53.80
65752;DHT22;52486;51.098;13.770;2022-12-18T16:35:19;24.10;54.50
65752;DHT22;52486;51.098;13.770;2022-12-18T16:37:44;24.00;53.80
65752;DHT22;52486;51.098;13.770;2022-12-18T16:40:11;23.80;54.00
65752;DHT22;52486;51.098;13.770;2022-12-18T16:42:38;23.90;54.00
65752;DHT22;52486;51.098;13.770;2022-12-18T16:45:05;23.90;54.70
65752;DHT22;52486;51.098;13.770;2022-12-18T16:47:30;24.00;54.30
65752;DHT22;52486;51.098;13.770;2022-12-18T16:49:56;23.80;54.40
65752;DHT22;52486;51.098;13.770;2022-12-18T16:52:22;24.00;54.40
65752;DHT22;52486;51.098;13.770;2022-12-18T16:54:47;22.70;53.90
65752;DHT22;52486;51.098;13.770;2022-12-18T16:57:14;23.80;53.70
65752;DHT22;52486;51.098;13.770;2022-12-18T16:59:40;23.90;53.60
65752;DHT22;52486;51.098;13.770;2022-12-18T17:02:06;23.70;52.70
65752;DHT22;52486;51.098;13.770;2022-12-18T17:04:35;24.00;52.70
65752;DHT22;52486;51.098;13.770;2022-12-18T17:07:01;23.80;51.90
65752;DHT22;52486;51.098;13.770;2022-12-18T17:09:28;23.80;51.70
65752;DHT22;52486;51.098;13.770;2022-12-18T17:11:54;23.60;51.70
65752;DHT22;52486;51.098;13.770;2022-12-18T17:14:21;23.60;51.40
65752;DHT22;52486;51.098;13.770;2022-12-18T17:16:47;23.80;51.40
65752;DHT22;52486;51.098;13.770;2022-12-18T17:19:13;23.60;50.90
65752;DHT22;52486;51.098;13.770;2022-12-18T17:21:40;23.70;50.80
65752;DHT22;52486;51.098;13.770;2022-12-18T17:24:05;23.60;50.70
65752;DHT22;52486;51.098;13.770;2022-12-18T17:26:31;23.70;50.10
65752;DHT22;52486;51.098;13.770;2022-12-18T17:28:57;23.60;50.40
65752;DHT22;52486;51.098;13.770;2022-12-18T17:31:23;23.60;50.40
65752;DHT22;52486;51.098;13.770;2022-12-18T17:33:49;23.70;50.30
65752;DHT22;52486;51.098;13.770;2022-12-18T17:36:15;23.50;50.30
65752;DHT22;52486;51.098;13.770;2022-12-18T17:38:48;23.80;50.40
65752;DHT22;52486;51.098;13.770;2022-12-18T17:41:14;23.60;48.50
65752;DHT22;52486;51.098;13.770;2022-12-18T17:43:39;23.60;50.10
65752;DHT22;52486;51.098;13.770;2022-12-18T17:46:11;23.70;48.90
65752;DHT22;52486;51.098;13.770;2022-12-18T17:48:36;23.70;50.40
65752;DHT22;52486;51.098;13.770;2022-12-18T17:51:02;23.40;50.00
65752;DHT22;52486;51.098;13.770;2022-12-18T17:53:28;23.80;50.20
65752;DHT22;52486;51.098;13.770;2022-12-18T17:55:55;23.40;49.90
65752;DHT22;52486;51.098;13.770;2022-12-18T17:58:21;23.60;50.30
65752;DHT22;52486;51.098;13.770;2022-12-18T18:00:46;23.70;49.90
65752;DHT22;52486;51.098;13.770;2022-12-18T18:03:12;23.60;50.00
65752;DHT22;52486;51.098;13.770;2022-12-18T18:05:38;23.50;49.60
65752;DHT22;52486;51.098;13.770;2022-12-18T18:08:03;23.50;49.80
65752;DHT22;52486;51.098;13.770;2022-12-18T18:10:29;23.50;49.30
65752;DHT22;52486;51.098;13.770;2022-12-18T18:12:54;23.70;49.90
65752;DHT22;52486;51.098;13.770;2022-12-18T18:15:39;23.50;48.20
65752;DHT22;52486;51.098;13.770;2022-12-18T18:18:04;23.60;49.50
65752;DHT22;52486;51.098;13.770;2022-12-18T18:20:30;23.40;49.70
65752;DHT22;52486;51.098;13.770;2022-12-18T18:22:56;23.70;49.70
65752;DHT22;52486;51.098;13.770;2022-12-18T18:25:22;23.60;49.80
65752;DHT22;52486;51.098;13.770;2022-12-18T18:27:48;23.60;49.90
65752;DHT22;52486;51.098;13.770;2022-12-18T18:30:13;23.50;49.70
65752;DHT22;52486;51.098;13.770;2022-12-18T18:32:39;23.70;49.80
65752;DHT22;52486;51.098;13.770;2022-12-18T18:35:05;23.60;49.70
65752;DHT22;52486;51.098;13.770;2022-12-18T18:37:31;23.80;49.50
65752;DHT22;52486;51.098;13.770;2022-12-18T18:39:57;23.50;50.00
65752;DHT22;52486;51.098;13.770;2022-12-18T18:42:25;23.50;49.90
65752;DHT22;52486;51.098;13.770;2022-12-18T18:44:51;23.50;50.00
65752;DHT22;52486;51.098;13.770;2022-12-18T18:47:16;23.50;50.30
65752;DHT22;52486;51.098;13.770;2022-12-18T18:49:42;23.40;50.00
65752;DHT22;52486;51.098;13.770;2022-12-18T18:52:08;23.50;50.20
65752;DHT22;52486;51.098;13.770;2022-12-18T18:54:33;23.50;50.30
65752;DHT22;52486;51.098;13.770;2022-12-18T18:56:59;23.40;50.10
65752;DHT22;52486;51.098;13.770;2022-12-18T18:59:24;23.30;50.10
65752;DHT22;52486;51.098;13.770;2022-12-18T19:01:50;23.40;50.00
65752;DHT22;52486;51.098;13.770;2022-12-18T19:04:17;23.50;50.10
65752;DHT22;52486;51.098;13.770;2022-12-18T19:06:42;23.50;50.00
65752;DHT22;52486;51.098;13.770;2022-12-18T19:09:11;23.50;49.80
65752;DHT22;52486;51.098;13.770;2022-12-18T19:11:37;23.60;49.90
65752;DHT22;52486;51.098;13.770;2022-12-18T19:14:24;23.40;49.70
65752;DHT22;52486;51.098;13.770;2022-12-18T19:16:49;23.70;48.40
65752;DHT22;52486;51.098;13.770;2022-12-18T19:19:15;23.40;50.00
65752;DHT22;52486;51.098;13.770;2022-12-18T19:21:45;23.50;48.60
65752;DHT22;52486;51.098;13.770;2022-12-18T19:24:11;23.50;49.70
65752;DHT22;52486;51.098;13.770;2022-12-18T19:26:36;23.60;50.10
65752;DHT22;52486;51.098;13.770;2022-12-18T19:29:06;23.50;49.90
65752;DHT22;52486;51.098;13.770;2022-12-18T19:31:32;23.30;49.70